sensor_id;sensor_type;location;lat;lon;timestamp;temperature;humidity
16829;DHT22;8531;48.078;11.968;2023-11-21T00:02:04;6.90;99.90
16829;DHT22;8531;48.078;11.968;2023-11-21T00:04:30;6.90;99.90
16829;DHT22;8531;48.078;11.968;2023-11-21T00:06:56;6.90;99.90
16829;DHT22;8531;48.078;11.968;2023-11-21T00:09:21;6.90;99.90
16829;DHT22;8531;48.078;11.968;2023-11-21T00:11:47;6.90;99.90
16829;DHT22;8531;48.078;11.968;2023-11-21T00:14:13;6.90;99.90
16829;DHT22;8531;48.078;11.968;2023-11-21T00:16:41;6.90;99.90
16829;DHT22;8531;48.078;11.968;2023-11-21T00:19:07;6.90;99.90
16829;DHT22;8531;48.078;11.968;2023-11-21T00:21:32;7.00;99.90
16829;DHT22;8531;48.078;11.968;2023-11-21T00:23:58;7.10;99.90
16829;DHT22;8531;48.078;11.968;2023-11-21T00:26:24;7.10;99.90
16829;DHT22;8531;48.078;11.968;2023-11-21T00:28:50;7.20;99.90
16829;DHT22;8531;48.078;11.968;2023-11-21T00:31:16;7.20;99.90
16829;DHT22;8531;48.078;11.968;2023-11-21T00:33:41;7.20;99.90
16829;DHT22;8531;48.078;11.968;2023-11-21T00:36:09;7.20;99.90
16829;DHT22;8531;48.078;11.968;2023-11-21T00:38:35;7.30;99.90
16829;DHT22;8531;48.078;11.968;2023-11-21T00:41:01;7.40;99.90
16829;DHT22;8531;48.078;11.968;2023-11-21T00:43:28;7.40;99.90
16829;DHT22;8531;48.078;11.968;2023-11-21T00:45:54;7.30;99.90
16829;DHT22;8531;48.078;11.968;2023-11-21T00:48:19;7.30;99.90
16829;DHT22;8531;48.078;11.968;2023-11-21T00:50:45;7.30;99.90
16829;DHT22;8531;48.078;11.968;2023-11-21T00:53:11;7.30;99.90
16829;DHT22;8531;48.078;11.968;2023-11-21T00:55:37;7.30;99.90
16829;DHT22;8531;48.078;11.968;2023-11-21T00:58:05;7.30;99.90
16829;DHT22;8531;48.078;11.968;2023-11-21T01:00:33;7.30;99.90
16829;DHT22;8531;48.078;11.968;2023-11-21T01:02:59;7.30;99.90
16829;DHT22;8531;48.078;11.968;2023-11-21T01:05:25;7.30;99.90
16829;DHT22;8531;48.078;11.968;2023-11-21T01:07:50;7.30;99.90
16829;DHT22;8531;48.078;11.968;2023-11-21T01:10:16;7.30;99.90
16829;DHT22;8531;48.078;11.968;2023-11-21T01:12:43;7.40;99.90
16829;DHT22;8531;48.078;11.968;2023-11-21T01:15:08;7.40;99.90
16829;DHT22;8531;48.078;11.968;2023-11-21T01:17:35;7.30;99.90
16829;DHT22;8531;48.078;11.968;2023-11-21T01:20:03;7.30;99.90
16829;DHT22;8531;48.078;11.968;2023-11-21T01:22:36;7.30;99.90
16829;DHT22;8531;48.078;11.968;2023-11-21T01:25:01;7.30;99.90
16829;DHT22;8531;48.078;11.968;2023-11-21T01:27:29;7.30;99.90
16829;DHT22;8531;48.078;11.968;2023-11-21T01:29:55;7.20;99.90
16829;DHT22;8531;48.078;11.968;2023-11-21T01:32:21;7.20;99.90
16829;DHT22;8531;48.078;11.968;2023-11-21T01:34:47;7.20;99.90
16829;DHT22;8531;48.078;11.968;2023-11-21T01:37:13;7.20;99.90
16829;DHT22;8531;48.078;11.968;2023-11-21T01:39:39;7.10;99.90
16829;DHT22;8531;48.078;11.968;2023-11-21T01:42:05;7.10;99.90
16829;DHT22;8531;48.078;11.968;2023-11-21T01:44:31;7.00;99.90
16829;DHT22;8531;48.078;11.968;2023-11-21T01:46:57;7.00;99.90
16829;DHT22;8531;48.078;11.968;2023-11-21T01:49:23;7.00;99.90
16829;DHT22;8531;48.078;11.968;2023-11-21T01:51:49;7.00;99.90
16829;DHT22;8531;48.078;11.968;2023-11-21T01:54:17;7.00;99.90
16829;DHT22;8531;48.078;11.968;2023-11-21T01:56:47;7.00;99.90
16829;DHT22;8531;48.078;11.968;2023-11-21T01:59:21;7.00;99.90
16829;DHT22;8531;48.078;11.968;2023-11-21T02:01:47;7.00;99.90
16829;DHT22;8531;48.078;11.968;2023-11-21T02:04:13;7.00;99.90
16829;DHT22;8531;48.078;11.968;2023-11-21T02:06:39;7.00;99.90
16829;DHT22;8531;48.078;11.968;2023-11-21T02:09:05;7.00;99.90
16829;DHT22;8531;48.078;11.968;2023-11-21T02:11:31;7.00;99.90
16829;DHT22;8531;48.078;11.968;2023-11-21T02:13:59;6.90;99.90
16829;DHT22;8531;48.078;11.968;2023-11-21T02:16:26;6.90;99.90
16829;DHT22;8531;48.078;11.968;2023-11-21T02:18:53;6.80;99.90
16829;DHT22;8531;48.078;11.968;2023-11-21T02:21:18;6.90;99.90
16829;DHT22;8531;48.078;11.968;2023-11-21T02:23:47;6.80;99.90
16829;DHT22;8531;48.078;11.968;2023-11-21T02:26:13;6.80;99.90
16829;DHT22;8531;48.078;11.968;2023-11-21T02:28:39;6.70;99.90
16829;DHT22;8531;48.078;11.968;2023-11-21T02:31:05;6.70;99.90
16829;DHT22;8531;48.078;11.968;2023-11-21T02:33:33;6.70;99.90
16829;DHT22;8531;48.078;11.968;2023-11-21T02:36:00;6.80;99.90
16829;DHT22;8531;48.078;11.968;2023-11-21T02:38:26;6.70;99.90
16829;DHT22;8531;48.078;11.968;2023-11-21T02:40:51;6.80;99.90
16829;DHT22;8531;48.078;11.968;2023-11-21T02:43:17;6.80;99.90
16829;DHT22;8531;48.078;11.968;2023-11-21T02:45:43;6.80;99.90
16829;DHT22;8531;48.078;11.968;2023-11-21T02:48:09;6.80;99.90
16829;DHT22;8531;48.078;11.968;2023-11-21T02:50:34;6.80;99.90
16829;DHT22;8531;48.078;11.968;2023-11-21T02:53:01;6.90;99.90
16829;DHT22;8531;48.078;11.968;2023-11-21T02:55:27;6.90;99.90
16829;DHT22;8531;48.078;11.968;2023-11-21T02:57:53;7.00;99.90
16829;DHT22;8531;48.078;11.968;2023-11-21T03:00:19;7.00;99.90
16829;DHT22;8531;48.078;11.968;2023-11-21T03:02:45;7.10;99.90
16829;DHT22;8531;48.078;11.968;2023-11-21T03:05:12;7.20;99.90
16829;DHT22;8531;48.078;11.968;2023-11-21T03:07:39;7.30;99.90
16829;DHT22;8531;48.078;11.968;2023-11-21T03:10:07;7.30;99.90
16829;DHT22;8531;48.078;11.968;2023-11-21T03:12:34;7.30;99.90
16829;DHT22;8531;48.078;11.968;2023-11-21T03:15:00;7.30;99.90
16829;DHT22;8531;48.078;11.968;2023-11-21T03:17:27;7.40;99.90
16829;DHT22;8531;48.078;11.968;2023-11-21T03:19:54;7.40;99.90
16829;DHT22;8531;48.078;11.968;2023-11-21T03:22:20;7.40;99.90
16829;DHT22;8531;48.078;11.968;2023-11-21T03:24:45;7.40;99.90
16829;DHT22;8531;48.078;11.968;2023-11-21T03:27:11;7.40;99.90
16829;DHT22;8531;48.078;11.968;2023-11-21T03:29:37;7.40;99.90
16829;DHT22;8531;48.078;11.968;2023-11-21T03:32:03;7.30;99.90
16829;DHT22;8531;48.078;11.968;2023-11-21T03:34:29;7.30;99.90
16829;DHT22;8531;48.078;11.968;2023-11-21T03:36:55;7.40;99.90
16829;DHT22;8531;48.078;11.968;2023-11-21T03:39:21;7.30;99.90
16829;DHT22;8531;48.078;11.968;2023-11-21T03:41:47;7.30;99.90
16829;DHT22;8531;48.078;11.968;2023-11-21T03:44:13;7.30;99.90
16829;DHT22;8531;48.078;11.968;2023-11-21T03:46:39;7.30;99.90
16829;DHT22;8531;48.078;11.968;2023-11-21T03:49:05;7.30;99.90
16829;DHT22;8531;48.078;11.968;2023-11-21T03:51:30;7.20;99.90
16829;DHT22;8531;48.078;11.968;2023-11-21T03:53:56;7.20;99.90
16829;DHT22;8531;48.078;11.968;2023-11-21T03:56:22;7.20;99.90
16829;DHT22;8531;48.078;11.968;2023-11-21T03:58:48;7.20;99.90
16829;DHT22;8531;48.078;11.968;2023-11-21T04:01:24;7.20;99.90
16829;DHT22;8531;48.078;11.968;2023-11-21T04:03:50;7.20;99.90
16829;DHT22;8531;48.078;11.968;2023-11-21T04:06:16;7.20;99.90
16829;DHT22;8531;48.078;11.968;2023-11-21T04:08:43;7.30;99.90
16829;DHT22;8531;48.078;11.968;2023-11-21T04:11:10;7.30;99.90
16829;DHT22;8531;48.078;11.968;2023-11-21T04:13:38;7.30;99.90
16829;DHT22;8531;48.078;11.968;2023-11-21T04:16:05;7.30;99.90
16829;DHT22;8531;48.078;11.968;2023-11-21T04:18:31;7.30;99.90
16829;DHT22;8531;48.078;11.968;2023-11-21T04:20:57;7.30;99.90
16829;DHT22;8531;48.078;11.968;2023-11-21T04:23:23;7.30;99.90
16829;DHT22;8531;48.078;11.968;2023-11-21T04:25:48;7.30;99.90
16829;DHT22;8531;48.078;11.968;2023-11-21T04:28:14;7.30;99.90
16829;DHT22;8531;48.078;11.968;2023-11-21T04:30:39;7.30;99.90
16829;DHT22;8531;48.078;11.968;2023-11-21T04:33:06;7.30;99.90
16829;DHT22;8531;48.078;11.968;2023-11-21T04:35:33;7.30;99.90
16829;DHT22;8531;48.078;11.968;2023-11-21T04:37:58;7.30;99.90
16829;DHT22;8531;48.078;11.968;2023-11-21T04:40:25;7.30;99.90
16829;DHT22;8531;48.078;11.968;2023-11-21T04:42:52;7.30;99.90
16829;DHT22;8531;48.078;11.968;2023-11-21T04:45:18;7.30;99.90
16829;DHT22;8531;48.078;11.968;2023-11-21T04:47:43;7.20;99.90
16829;DHT22;8531;48.078;11.968;2023-11-21T04:50:10;7.30;99.90
16829;DHT22;8531;48.078;11.968;2023-11-21T04:52:36;7.30;99.90
16829;DHT22;8531;48.078;11.968;2023-11-21T04:55:02;7.30;99.90
16829;DHT22;8531;48.078;11.968;2023-11-21T04:57:28;7.30;99.90
16829;DHT22;8531;48.078;11.968;2023-11-21T04:59:56;7.30;99.90
16829;DHT22;8531;48.078;11.968;2023-11-21T05:02:22;7.20;99.90
16829;DHT22;8531;48.078;11.968;2023-11-21T05:04:48;7.30;99.90
16829;DHT22;8531;48.078;11.968;2023-11-21T05:07:13;7.20;99.90
16829;DHT22;8531;48.078;11.968;2023-11-21T05:09:42;7.30;99.90
16829;DHT22;8531;48.078;11.968;2023-11-21T05:12:09;7.30;99.90
16829;DHT22;8531;48.078;11.968;2023-11-21T05:14:36;7.40;99.90
16829;DHT22;8531;48.078;11.968;2023-11-21T05:17:02;7.40;99.90
16829;DHT22;8531;48.078;11.968;2023-11-21T05:19:29;7.40;99.90
16829;DHT22;8531;48.078;11.968;2023-11-21T05:21:55;7.40;99.90
16829;DHT22;8531;48.078;11.968;2023-11-21T05:24:21;7.40;99.90
16829;DHT22;8531;48.078;11.968;2023-11-21T05:26:46;7.40;99.90
16829;DHT22;8531;48.078;11.968;2023-11-21T05:29:12;7.40;99.90
16829;DHT22;8531;48.078;11.968;2023-11-21T05:31:38;7.40;99.90
16829;DHT22;8531;48.078;11.968;2023-11-21T05:34:03;7.40;99.90
16829;DHT22;8531;48.078;11.968;2023-11-21T05:36:31;7.40;99.90
16829;DHT22;8531;48.078;11.968;2023-11-21T05:38:56;7.40;99.90
16829;DHT22;8531;48.078;11.968;2023-11-21T05:41:22;7.50;99.90
16829;DHT22;8531;48.078;11.968;2023-11-21T05:43:48;7.40;99.90
16829;DHT22;8531;48.078;11.968;2023-11-21T05:46:14;7.40;99.90
16829;DHT22;8531;48.078;11.968;2023-11-21T05:48:40;7.40;99.90
16829;DHT22;8531;48.078;11.968;2023-11-21T05:51:06;7.40;99.90
16829;DHT22;8531;48.078;11.968;2023-11-21T05:53:32;7.40;99.90
16829;DHT22;8531;48.078;11.968;2023-11-21T05:55:58;7.40;99.90
16829;DHT22;8531;48.078;11.968;2023-11-21T05:58:24;7.40;99.90
16829;DHT22;8531;48.078;11.968;2023-11-21T06:00:50;7.40;99.90
16829;DHT22;8531;48.078;11.968;2023-11-21T06:03:16;7.40;99.90
16829;DHT22;8531;48.078;11.968;2023-11-21T06:05:42;7.30;99.90
16829;DHT22;8531;48.078;11.968;2023-11-21T06:08:09;7.30;99.90
16829;DHT22;8531;48.078;11.968;2023-11-21T06:10:38;7.30;99.90
16829;DHT22;8531;48.078;11.968;2023-11-21T06:13:04;7.30;99.90
16829;DHT22;8531;48.078;11.968;2023-11-21T06:15:33;7.30;99.90
16829;DHT22;8531;48.078;11.968;2023-11-21T06:17:58;7.40;99.90
16829;DHT22;8531;48.078;11.968;2023-11-21T06:20:25;7.30;99.90
16829;DHT22;8531;48.078;11.968;2023-11-21T06:22:51;7.30;99.90
16829;DHT22;8531;48.078;11.968;2023-11-21T06:25:17;7.40;99.90
16829;DHT22;8531;48.078;11.968;2023-11-21T06:27:44;7.40;99.90
16829;DHT22;8531;48.078;11.968;2023-11-21T06:30:11;7.40;99.90
16829;DHT22;8531;48.078;11.968;2023-11-21T06:32:37;7.30;99.90
16829;DHT22;8531;48.078;11.968;2023-11-21T06:35:04;7.30;99.90
16829;DHT22;8531;48.078;11.968;2023-11-21T06:37:31;7.30;99.90
16829;DHT22;8531;48.078;11.968;2023-11-21T06:39:58;7.30;99.90
16829;DHT22;8531;48.078;11.968;2023-11-21T06:42:25;7.30;99.90
16829;DHT22;8531;48.078;11.968;2023-11-21T06:44:51;7.40;99.90
16829;DHT22;8531;48.078;11.968;2023-11-21T06:47:22;7.40;99.90
16829;DHT22;8531;48.078;11.968;2023-11-21T06:49:50;7.40;99.90
16829;DHT22;8531;48.078;11.968;2023-11-21T06:52:17;7.40;99.90
16829;DHT22;8531;48.078;11.968;2023-11-21T06:54:43;7.40;99.90
16829;DHT22;8531;48.078;11.968;2023-11-21T06:57:09;7.40;99.90
16829;DHT22;8531;48.078;11.968;2023-11-21T06:59:35;7.40;99.90
16829;DHT22;8531;48.078;11.968;2023-11-21T07:02:01;7.30;99.90
16829;DHT22;8531;48.078;11.968;2023-11-21T07:04:27;7.40;99.90
16829;DHT22;8531;48.078;11.968;2023-11-21T07:06:55;7.30;99.90
16829;DHT22;8531;48.078;11.968;2023-11-21T07:09:21;7.40;99.90
16829;DHT22;8531;48.078;11.968;2023-11-21T07:11:50;7.30;99.90
16829;DHT22;8531;48.078;11.968;2023-11-21T07:14:16;7.30;99.90
16829;DHT22;8531;48.078;11.968;2023-11-21T07:16:42;7.40;99.90
16829;DHT22;8531;48.078;11.968;2023-11-21T07:19:08;7.30;99.90
16829;DHT22;8531;48.078;11.968;2023-11-21T07:21:35;7.40;99.90
16829;DHT22;8531;48.078;11.968;2023-11-21T07:24:04;7.40;99.90
16829;DHT22;8531;48.078;11.968;2023-11-21T07:26:31;7.40;99.90
16829;DHT22;8531;48.078;11.968;2023-11-21T07:28:57;7.40;99.90
16829;DHT22;8531;48.078;11.968;2023-11-21T07:31:23;7.40;99.90
16829;DHT22;8531;48.078;11.968;2023-11-21T07:33:50;7.40;99.90
16829;DHT22;8531;48.078;11.968;2023-11-21T07:36:17;7.40;99.90
16829;DHT22;8531;48.078;11.968;2023-11-21T07:38:48;7.40;99.90
16829;DHT22;8531;48.078;11.968;2023-11-21T07:41:14;7.40;99.90
16829;DHT22;8531;48.078;11.968;2023-11-21T07:43:44;7.30;99.90
16829;DHT22;8531;48.078;11.968;2023-11-21T07:46:10;7.30;99.90
16829;DHT22;8531;48.078;11.968;2023-11-21T07:48:38;7.30;99.90
16829;DHT22;8531;48.078;11.968;2023-11-21T07:51:04;7.30;99.90
16829;DHT22;8531;48.078;11.968;2023-11-21T07:53:30;7.30;99.90
16829;DHT22;8531;48.078;11.968;2023-11-21T07:55:56;7.30;99.90
16829;DHT22;8531;48.078;11.968;2023-11-21T07:58:22;7.30;99.90
16829;DHT22;8531;48.078;11.968;2023-11-21T08:00:49;7.40;99.90
16829;DHT22;8531;48.078;11.968;2023-11-21T08:03:15;7.40;99.90
16829;DHT22;8531;48.078;11.968;2023-11-21T08:05:41;7.40;99.90
16829;DHT22;8531;48.078;11.968;2023-11-21T08:08:07;7.40;99.90
16829;DHT22;8531;48.078;11.968;2023-11-21T08:10:33;7.40;99.90
16829;DHT22;8531;48.078;11.968;2023-11-21T08:12:59;7.40;99.90
16829;DHT22;8531;48.078;11.968;2023-11-21T08:15:24;7.40;99.90
16829;DHT22;8531;48.078;11.968;2023-11-21T08:17:50;7.50;99.90
16829;DHT22;8531;48.078;11.968;2023-11-21T08:20:16;7.50;99.90
16829;DHT22;8531;48.078;11.968;2023-11-21T08:22:44;7.50;99.90
16829;DHT22;8531;48.078;11.968;2023-11-21T08:25:10;7.60;99.90
16829;DHT22;8531;48.078;11.968;2023-11-21T08:27:36;7.60;99.90
16829;DHT22;8531;48.078;11.968;2023-11-21T08:30:07;7.70;99.90
16829;DHT22;8531;48.078;11.968;2023-11-21T08:32:33;7.70;99.90
16829;DHT22;8531;48.078;11.968;2023-11-21T08:35:00;7.80;99.90
16829;DHT22;8531;48.078;11.968;2023-11-21T08:37:26;7.80;99.90
16829;DHT22;8531;48.078;11.968;2023-11-21T08:39:52;7.90;99.90
16829;DHT22;8531;48.078;11.968;2023-11-21T08:42:20;7.90;99.90
16829;DHT22;8531;48.078;11.968;2023-11-21T08:44:46;8.00;99.90
16829;DHT22;8531;48.078;11.968;2023-11-21T08:47:12;8.00;99.90
16829;DHT22;8531;48.078;11.968;2023-11-21T08:49:38;8.00;99.90
16829;DHT22;8531;48.078;11.968;2023-11-21T08:52:04;8.00;99.90
16829;DHT22;8531;48.078;11.968;2023-11-21T08:54:31;8.10;99.90
16829;DHT22;8531;48.078;11.968;2023-11-21T08:56:56;8.10;99.90
16829;DHT22;8531;48.078;11.968;2023-11-21T08:59:24;8.10;99.90
16829;DHT22;8531;48.078;11.968;2023-11-21T09:01:50;8.10;99.90
16829;DHT22;8531;48.078;11.968;2023-11-21T09:04:16;8.10;99.90
16829;DHT22;8531;48.078;11.968;2023-11-21T09:06:42;8.10;99.90
16829;DHT22;8531;48.078;11.968;2023-11-21T09:09:08;8.20;99.90
16829;DHT22;8531;48.078;11.968;2023-11-21T09:11:36;8.20;99.90
16829;DHT22;8531;48.078;11.968;2023-11-21T09:14:02;8.20;99.90
16829;DHT22;8531;48.078;11.968;2023-11-21T09:16:29;8.20;99.90
16829;DHT22;8531;48.078;11.968;2023-11-21T09:18:54;8.30;99.90
16829;DHT22;8531;48.078;11.968;2023-11-21T09:21:20;8.20;99.90
16829;DHT22;8531;48.078;11.968;2023-11-21T09:23:48;8.30;99.90
16829;DHT22;8531;48.078;11.968;2023-11-21T09:26:14;8.30;99.90
16829;DHT22;8531;48.078;11.968;2023-11-21T09:28:42;8.30;99.90
16829;DHT22;8531;48.078;11.968;2023-11-21T09:31:11;8.30;99.90
16829;DHT22;8531;48.078;11.968;2023-11-21T09:33:37;8.30;99.90
16829;DHT22;8531;48.078;11.968;2023-11-21T09:36:04;8.40;99.90
16829;DHT22;8531;48.078;11.968;2023-11-21T09:38:30;8.40;99.90
16829;DHT22;8531;48.078;11.968;2023-11-21T09:40:56;8.50;99.90
16829;DHT22;8531;48.078;11.968;2023-11-21T09:43:25;8.50;99.90
16829;DHT22;8531;48.078;11.968;2023-11-21T09:45:59;8.50;99.90
16829;DHT22;8531;48.078;11.968;2023-11-21T09:48:26;8.50;99.90
16829;DHT22;8531;48.078;11.968;2023-11-21T09:50:53;8.50;99.90
16829;DHT22;8531;48.078;11.968;2023-11-21T09:53:19;8.50;99.90
16829;DHT22;8531;48.078;11.968;2023-11-21T09:55:52;8.50;99.90
16829;DHT22;8531;48.078;11.968;2023-11-21T09:58:18;8.50;99.90
16829;DHT22;8531;48.078;11.968;2023-11-21T10:00:47;8.50;99.90
16829;DHT22;8531;48.078;11.968;2023-11-21T10:03:13;8.50;99.90
16829;DHT22;8531;48.078;11.968;2023-11-21T10:05:42;8.50;99.90
16829;DHT22;8531;48.078;11.968;2023-11-21T10:08:09;8.60;99.90
16829;DHT22;8531;48.078;11.968;2023-11-21T10:10:36;8.50;99.90
16829;DHT22;8531;48.078;11.968;2023-11-21T10:13:06;8.60;99.90
16829;DHT22;8531;48.078;11.968;2023-11-21T10:15:34;8.70;99.90
16829;DHT22;8531;48.078;11.968;2023-11-21T10:18:05;8.70;99.90
16829;DHT22;8531;48.078;11.968;2023-11-21T10:20:33;8.70;99.90
16829;DHT22;8531;48.078;11.968;2023-11-21T10:23:03;8.70;99.90
16829;DHT22;8531;48.078;11.968;2023-11-21T10:25:32;8.80;99.90
16829;DHT22;8531;48.078;11.968;2023-11-21T10:28:02;8.80;99.90
16829;DHT22;8531;48.078;11.968;2023-11-21T10:30:36;8.90;99.90
16829;DHT22;8531;48.078;11.968;2023-11-21T10:33:06;8.90;99.90
16829;DHT22;8531;48.078;11.968;2023-11-21T10:35:46;8.90;99.90
16829;DHT22;8531;48.078;11.968;2023-11-21T10:38:20;8.90;99.90
16829;DHT22;8531;48.078;11.968;2023-11-21T10:40:49;8.90;99.90
16829;DHT22;8531;48.078;11.968;2023-11-21T10:43:15;8.90;99.90
16829;DHT22;8531;48.078;11.968;2023-11-21T10:45:42;8.90;99.90
16829;DHT22;8531;48.078;11.968;2023-11-21T10:48:09;9.00;99.90
16829;DHT22;8531;48.078;11.968;2023-11-21T10:50:40;9.00;99.90
16829;DHT22;8531;48.078;11.968;2023-11-21T10:53:06;9.00;99.90
16829;DHT22;8531;48.078;11.968;2023-11-21T10:55:34;9.00;99.90
16829;DHT22;8531;48.078;11.968;2023-11-21T10:58:02;9.00;99.90
16829;DHT22;8531;48.078;11.968;2023-11-21T11:00:30;9.00;99.90
16829;DHT22;8531;48.078;11.968;2023-11-21T11:02:56;9.10;99.90
16829;DHT22;8531;48.078;11.968;2023-11-21T11:05:26;9.10;99.90
16829;DHT22;8531;48.078;11.968;2023-11-21T11:08:04;9.10;99.90
16829;DHT22;8531;48.078;11.968;2023-11-21T11:10:31;9.10;99.90
16829;DHT22;8531;48.078;11.968;2023-11-21T11:12:57;9.10;99.90
16829;DHT22;8531;48.078;11.968;2023-11-21T11:15:25;9.20;99.90
16829;DHT22;8531;48.078;11.968;2023-11-21T11:17:52;9.30;99.90
16829;DHT22;8531;48.078;11.968;2023-11-21T11:20:18;9.30;99.90
16829;DHT22;8531;48.078;11.968;2023-11-21T11:29:22;9.40;99.90
16829;DHT22;8531;48.078;11.968;2023-11-21T11:32:04;9.40;99.90
16829;DHT22;8531;48.078;11.968;2023-11-21T11:34:39;9.40;99.90
16829;DHT22;8531;48.078;11.968;2023-11-21T11:37:08;9.40;99.90
16829;DHT22;8531;48.078;11.968;2023-11-21T11:39:41;9.30;99.90
16829;DHT22;8531;48.078;11.968;2023-11-21T11:42:12;9.30;99.90
16829;DHT22;8531;48.078;11.968;2023-11-21T11:47:27;9.20;99.90
16829;DHT22;8531;48.078;11.968;2023-11-21T11:52:46;9.20;99.90
16829;DHT22;8531;48.078;11.968;2023-11-21T11:55:13;9.20;99.90
16829;DHT22;8531;48.078;11.968;2023-11-21T11:57:41;9.20;99.90
16829;DHT22;8531;48.078;11.968;2023-11-21T12:00:14;9.30;99.90
16829;DHT22;8531;48.078;11.968;2023-11-21T12:02:58;9.30;99.90
16829;DHT22;8531;48.078;11.968;2023-11-21T12:05:26;9.40;99.90
16829;DHT22;8531;48.078;11.968;2023-11-21T12:07:59;9.30;99.90
16829;DHT22;8531;48.078;11.968;2023-11-21T12:10:30;9.30;99.90
16829;DHT22;8531;48.078;11.968;2023-11-21T12:13:00;9.30;99.90
16829;DHT22;8531;48.078;11.968;2023-11-21T12:15:26;9.30;99.90
16829;DHT22;8531;48.078;11.968;2023-11-21T12:17:56;9.30;99.90
16829;DHT22;8531;48.078;11.968;2023-11-21T12:20:23;9.30;99.90
16829;DHT22;8531;48.078;11.968;2023-11-21T12:22:56;9.40;99.90
16829;DHT22;8531;48.078;11.968;2023-11-21T12:25:26;9.40;99.90
16829;DHT22;8531;48.078;11.968;2023-11-21T12:27:58;9.50;99.90
16829;DHT22;8531;48.078;11.968;2023-11-21T12:30:27;9.50;99.90
16829;DHT22;8531;48.078;11.968;2023-11-21T12:33:02;9.60;99.90
16829;DHT22;8531;48.078;11.968;2023-11-21T12:35:33;9.70;99.90
16829;DHT22;8531;48.078;11.968;2023-11-21T12:38:03;9.70;99.90
16829;DHT22;8531;48.078;11.968;2023-11-21T12:40:29;9.70;99.90
16829;DHT22;8531;48.078;11.968;2023-11-21T12:42:58;9.70;99.90
16829;DHT22;8531;48.078;11.968;2023-11-21T12:45:25;9.80;99.90
16829;DHT22;8531;48.078;11.968;2023-11-21T12:48:01;9.80;99.90
16829;DHT22;8531;48.078;11.968;2023-11-21T12:50:30;9.70;99.90
16829;DHT22;8531;48.078;11.968;2023-11-21T12:53:05;9.70;99.90
16829;DHT22;8531;48.078;11.968;2023-11-21T12:55:34;9.70;99.90
16829;DHT22;8531;48.078;11.968;2023-11-21T12:58:05;9.80;99.90
16829;DHT22;8531;48.078;11.968;2023-11-21T13:00:44;9.80;99.90
16829;DHT22;8531;48.078;11.968;2023-11-21T13:03:11;9.90;99.90
16829;DHT22;8531;48.078;11.968;2023-11-21T13:05:39;9.90;99.90
16829;DHT22;8531;48.078;11.968;2023-11-21T13:08:11;9.80;99.90
16829;DHT22;8531;48.078;11.968;2023-11-21T13:10:40;9.70;99.90
16829;DHT22;8531;48.078;11.968;2023-11-21T13:13:09;9.70;99.90
16829;DHT22;8531;48.078;11.968;2023-11-21T13:15:47;9.60;99.90
16829;DHT22;8531;48.078;11.968;2023-11-21T13:18:13;9.50;99.90
16829;DHT22;8531;48.078;11.968;2023-11-21T13:20:40;9.40;99.90
16829;DHT22;8531;48.078;11.968;2023-11-21T13:23:10;9.30;99.90
16829;DHT22;8531;48.078;11.968;2023-11-21T13:25:43;9.10;99.90
16829;DHT22;8531;48.078;11.968;2023-11-21T13:28:11;9.00;99.90
16829;DHT22;8531;48.078;11.968;2023-11-21T13:30:38;9.00;99.90
16829;DHT22;8531;48.078;11.968;2023-11-21T13:33:06;8.90;99.90
16829;DHT22;8531;48.078;11.968;2023-11-21T13:35:37;8.90;99.90
16829;DHT22;8531;48.078;11.968;2023-11-21T13:38:09;8.80;99.90
16829;DHT22;8531;48.078;11.968;2023-11-21T13:40:36;8.80;99.90
16829;DHT22;8531;48.078;11.968;2023-11-21T13:43:09;8.70;99.90
16829;DHT22;8531;48.078;11.968;2023-11-21T13:45:38;8.70;99.90
16829;DHT22;8531;48.078;11.968;2023-11-21T13:48:05;8.80;99.90
16829;DHT22;8531;48.078;11.968;2023-11-21T13:50:38;8.80;99.90
16829;DHT22;8531;48.078;11.968;2023-11-21T13:53:08;8.80;99.90
16829;DHT22;8531;48.078;11.968;2023-11-21T13:55:44;8.80;99.90
16829;DHT22;8531;48.078;11.968;2023-11-21T13:58:10;8.80;99.90
16829;DHT22;8531;48.078;11.968;2023-11-21T14:00:42;8.80;99.90
16829;DHT22;8531;48.078;11.968;2023-11-21T14:03:12;8.60;99.90
16829;DHT22;8531;48.078;11.968;2023-11-21T14:05:50;8.60;99.90
16829;DHT22;8531;48.078;11.968;2023-11-21T14:08:22;8.60;99.90
16829;DHT22;8531;48.078;11.968;2023-11-21T14:10:50;8.70;99.90
16829;DHT22;8531;48.078;11.968;2023-11-21T14:13:21;8.70;99.90
16829;DHT22;8531;48.078;11.968;2023-11-21T14:15:49;8.60;99.90
16829;DHT22;8531;48.078;11.968;2023-11-21T14:18:17;8.60;99.90
16829;DHT22;8531;48.078;11.968;2023-11-21T14:20:51;8.60;99.90
16829;DHT22;8531;48.078;11.968;2023-11-21T14:23:17;8.60;99.90
16829;DHT22;8531;48.078;11.968;2023-11-21T14:25:43;8.60;99.90
16829;DHT22;8531;48.078;11.968;2023-11-21T14:28:09;8.40;99.90
16829;DHT22;8531;48.078;11.968;2023-11-21T14:30:37;8.50;99.90
16829;DHT22;8531;48.078;11.968;2023-11-21T14:33:05;8.60;99.90
16829;DHT22;8531;48.078;11.968;2023-11-21T14:35:34;8.50;99.90
16829;DHT22;8531;48.078;11.968;2023-11-21T14:38:00;8.40;99.90
16829;DHT22;8531;48.078;11.968;2023-11-21T14:40:26;8.40;99.90
16829;DHT22;8531;48.078;11.968;2023-11-21T14:42:56;8.40;99.90
16829;DHT22;8531;48.078;11.968;2023-11-21T14:45:22;8.30;99.90
16829;DHT22;8531;48.078;11.968;2023-11-21T14:47:51;8.30;99.90
16829;DHT22;8531;48.078;11.968;2023-11-21T14:50:38;8.30;99.90
16829;DHT22;8531;48.078;11.968;2023-11-21T14:53:11;8.20;99.90
16829;DHT22;8531;48.078;11.968;2023-11-21T14:55:38;8.10;99.90
16829;DHT22;8531;48.078;11.968;2023-11-21T14:58:19;8.10;99.90
16829;DHT22;8531;48.078;11.968;2023-11-21T15:01:04;8.10;99.90
16829;DHT22;8531;48.078;11.968;2023-11-21T15:03:30;8.10;99.90
16829;DHT22;8531;48.078;11.968;2023-11-21T15:06:03;8.10;99.90
16829;DHT22;8531;48.078;11.968;2023-11-21T15:08:51;8.00;99.90
16829;DHT22;8531;48.078;11.968;2023-11-21T15:11:37;8.10;99.90
16829;DHT22;8531;48.078;11.968;2023-11-21T15:14:04;8.00;99.90
16829;DHT22;8531;48.078;11.968;2023-11-21T15:16:34;8.00;99.90
16829;DHT22;8531;48.078;11.968;2023-11-21T15:19:04;8.00;99.90
16829;DHT22;8531;48.078;11.968;2023-11-21T15:21:30;8.00;99.90
16829;DHT22;8531;48.078;11.968;2023-11-21T15:23:58;8.00;99.90
16829;DHT22;8531;48.078;11.968;2023-11-21T15:26:23;7.90;99.90
16829;DHT22;8531;48.078;11.968;2023-11-21T15:28:49;7.90;99.90
16829;DHT22;8531;48.078;11.968;2023-11-21T15:31:15;7.90;99.90
16829;DHT22;8531;48.078;11.968;2023-11-21T15:33:48;7.90;99.90
16829;DHT22;8531;48.078;11.968;2023-11-21T15:36:13;7.80;99.90
16829;DHT22;8531;48.078;11.968;2023-11-21T15:38:40;7.80;99.90
16829;DHT22;8531;48.078;11.968;2023-11-21T15:41:06;7.80;99.90
16829;DHT22;8531;48.078;11.968;2023-11-21T15:43:35;7.80;99.90
16829;DHT22;8531;48.078;11.968;2023-11-21T15:46:01;7.80;99.90
16829;DHT22;8531;48.078;11.968;2023-11-21T15:48:31;7.80;99.90
16829;DHT22;8531;48.078;11.968;2023-11-21T15:50:57;7.80;99.90
16829;DHT22;8531;48.078;11.968;2023-11-21T15:53:24;7.80;99.90
16829;DHT22;8531;48.078;11.968;2023-11-21T15:55:50;7.80;99.90
16829;DHT22;8531;48.078;11.968;2023-11-21T15:58:16;7.80;99.90
16829;DHT22;8531;48.078;11.968;2023-11-21T16:00:42;7.80;99.90